Main page
METAR-TAF:

METAR-TAF

Airports :

Albert, France

Albert – Picardie Airport

latitude: 49-58-21N, longitude: 002-41-29E, elevation: 111 m

Current weather observation

The report was made 24 minutes ago, at 13:30 UTC
Wind 16 kt from the West
Temperature 25°C
Humidity 44%
Pressure 1017 hPa
Visibility 10 km or more
Broken clouds at a height of 4800 ft
Overcast at a height of 6600 ft

METAR: LFAQ 241330Z AUTO 27016KT 9999 BKN048 OVC066 25/12 Q1017 NOSIG

Time: 15:54 (13:54 UTC)

Forecast

The report was made 23 hours and 54 minutes ago, at 14:00 UTC
Forecast valid from 23 at 15 UTC to 23 at 24 UTC
Wind 13 kt from the West
Visibility 10 km or more
Scattered clouds at a height of 3000 ft

TAF: LFAQ 231400Z 2315/2324 27013KT 9999 SCT030

Weather observations and forecasts of more than 4000 airports (METAR and TAF reports).

The available stations are represented by yellow and red dots on the map.

Hover mouse over dot to see the name of the station.

Then click to see weather observations and forecasts.

To change the map : click on the green buttons with a black cross to zoom in, on the green button with a dash to zoom out, or on the green arrows for adjacent maps.


METAR-TAF: